Terminal Aerodrome Forecast
Issued by NWS Los Angeles, CA

Home | Current Version | Previous Version | Text Only | Print | Product List | Glossary On
Versions: 1 2 3 4 5 6 7 8 9 10 11 12 13 14 15 16 17 18 19
000
FTUS46 KLOX 172300 RRA
TAFSMX
TAF
KSMX 172350Z 1800/1824 31008KT P6SM -SHRA SCT025 BKN050
     FM180500 VRB03KT 6SM -RA BR BKN025 OVC040
      TEMPO 1810/1812 5SM RA BR OVC012
     FM181500 VRB03KT P6SM VCSH BKN025 BKN050
     FM182000 31010KT P6SM SCT025 SCT050=

USA.gov is the U.S. government's official web portal to all federal, state and local government web resources and services.